Terminal Aerodrome Forecast
Issued by NWS Grand Forks, ND

Home | Current Version | Previous Version | Text Only | Print | Product List | Glossary Off
Versions: 1 2 3 4 5 6 7 8 9 10 11 12 13 14 15 16 17 18 19 20

516
FTUS43 KFGF 261109 AAA
TAFGFK
TAF AMD
KGFK 261109Z 2611/2706 30015G22KT P6SM FEW200
     FM270000 33014KT P6SM SKC
     FM270200 31008KT P6SM SKC=

USA.gov is the U.S. government's official web portal to all federal, state and local government web resources and services.